FVMK weather

Mkonono Airport
Mkonono, Mashonaland West Province, Zimbabwe

Public forecast

Using degrees Celsius for public forecast. Weather courtesy of forecast.io.

METAR (pilot weather report)

Closest report is Robert Gabriel Mugabe International Airport, 40.7 nm (75.4 km) ESE. Retrieved 2019/05/21 15:00 UTC (2 hours ago):

FVRG 211500Z VRB02KT CAVOK 23/06 Q1023 NOSIG

TAF (pilot weather forecast)

Forecast is more than 6 hours old.

Closest forecast is Robert Gabriel Mugabe International Airport, 40.7 nm (75.4 km) ESE. Retrieved 2019/05/21 06:00 UTC (11 hours ago):

TAF FVRG 210400Z 2106/2212 VRB05KT CAVOK FM211800 10006KT